createdAt,value
2022-11-29T00:01:34.012Z,100.00
2022-11-29T00:04:01.305Z,100.00
2022-11-29T00:06:33.888Z,100.00
2022-11-29T00:09:06.442Z,100.00
2022-11-29T00:11:55.057Z,100.00
2022-11-29T00:14:23.671Z,100.00
2022-11-29T00:16:56.008Z,100.00
2022-11-29T00:19:22.996Z,100.00
2022-11-29T00:21:49.975Z,100.00
2022-11-29T00:24:17.241Z,100.00
2022-11-29T00:26:44.128Z,100.00
2022-11-29T00:29:13.021Z,100.00
2022-11-29T00:31:40.334Z,100.00
2022-11-29T00:34:07.770Z,100.00
2022-11-29T00:36:35.691Z,100.00
2022-11-29T00:39:04.425Z,100.00
2022-11-29T00:41:31.944Z,100.00
2022-11-29T00:43:58.828Z,100.00
2022-11-29T00:46:25.696Z,100.00
2022-11-29T00:48:52.575Z,100.00
2022-11-29T00:51:19.472Z,100.00
2022-11-29T00:53:46.310Z,100.00
2022-11-29T00:56:13.182Z,100.00
2022-11-29T00:58:40.209Z,100.00
2022-11-29T01:01:07.077Z,100.00
2022-11-29T01:03:34.383Z,100.00
2022-11-29T01:06:07.404Z,100.00
2022-11-29T01:08:34.547Z,100.00
2022-11-29T01:11:22.966Z,100.00
2022-11-29T01:13:51.171Z,100.00
2022-11-29T01:16:18.538Z,100.00
2022-11-29T01:18:45.515Z,100.00
2022-11-29T01:21:18.531Z,100.00
2022-11-29T01:23:46.025Z,100.00
2022-11-29T01:26:18.640Z,100.00
2022-11-29T01:28:47.864Z,100.00
2022-11-29T01:31:21.249Z,100.00
2022-11-29T01:33:48.155Z,100.00
2022-11-29T01:36:15.463Z,100.00
2022-11-29T01:38:45.280Z,100.00
2022-11-29T01:41:18.452Z,100.00
2022-11-29T01:43:59.453Z,100.00
2022-11-29T01:46:37.319Z,100.00
2022-11-29T01:49:17.673Z,100.00
2022-11-29T01:51:49.541Z,100.00
2022-11-29T01:54:16.571Z,100.00
2022-11-29T01:56:45.864Z,100.00
2022-11-29T01:59:15.807Z,100.00
2022-11-29T02:01:42.817Z,100.00
2022-11-29T02:04:09.974Z,100.00
2022-11-29T02:06:37.542Z,100.00
2022-11-29T02:09:04.866Z,100.00
2022-11-29T02:11:57.605Z,100.00
2022-11-29T02:14:33.210Z,100.00
2022-11-29T02:17:15.039Z,100.00
2022-11-29T02:20:11.880Z,100.00
2022-11-29T02:22:43.261Z,100.00
2022-11-29T02:25:28.130Z,100.00
2022-11-29T02:28:30.490Z,100.00
2022-11-29T02:31:21.471Z,100.00
2022-11-29T02:34:07.740Z,100.00
2022-11-29T02:36:54.783Z,100.00
2022-11-29T02:39:30.331Z,100.00
2022-11-29T02:42:18.553Z,100.00
2022-11-29T02:45:11.754Z,100.00
2022-11-29T02:48:06.261Z,100.00
2022-11-29T02:50:46.787Z,100.00
2022-11-29T02:53:51.416Z,100.00
2022-11-29T02:56:37.782Z,100.00
2022-11-29T02:59:15.952Z,100.00
2022-11-29T03:02:04.484Z,100.00
2022-11-29T03:04:31.280Z,100.00
2022-11-29T03:07:20.091Z,100.00
2022-11-29T03:09:56.353Z,100.00
2022-11-29T03:12:35.707Z,100.00
2022-11-29T03:15:32.979Z,100.00
2022-11-29T03:18:37.599Z,100.00
2022-11-29T03:21:36.947Z,100.00
2022-11-29T03:24:19.630Z,100.00
2022-11-29T03:26:51.629Z,100.00
2022-11-29T03:29:40.783Z,100.00
2022-11-29T03:32:48.400Z,100.00
2022-11-29T03:35:20.839Z,100.00
2022-11-29T03:38:02.762Z,100.00
2022-11-29T03:40:51.755Z,100.00
2022-11-29T03:43:26.670Z,100.00
2022-11-29T03:46:02.349Z,100.00
2022-11-29T03:48:37.759Z,100.00
2022-11-29T03:51:14.542Z,100.00
2022-11-29T03:54:03.673Z,100.00
2022-11-29T03:56:36.669Z,100.00
2022-11-29T03:59:08.219Z,100.00
2022-11-29T04:02:08.592Z,100.00
2022-11-29T04:04:53.899Z,100.00
2022-11-29T04:07:26.751Z,100.00
2022-11-29T04:10:16.459Z,100.00
2022-11-29T04:12:49.367Z,100.00
2022-11-29T04:15:28.181Z,100.00
2022-11-29T04:18:13.738Z,100.00
2022-11-29T04:20:59.206Z,100.00
2022-11-29T04:24:01.512Z,100.00
2022-11-29T04:26:48.293Z,100.00
2022-11-29T04:29:19.293Z,100.00
2022-11-29T04:31:52.150Z,100.00
2022-11-29T04:34:41.110Z,100.00
2022-11-29T04:37:50.213Z,100.00
2022-11-29T04:40:32.376Z,100.00
2022-11-29T04:43:38.578Z,100.00
2022-11-29T04:46:26.390Z,100.00
2022-11-29T04:48:53.090Z,100.00
2022-11-29T04:51:36.915Z,100.00
2022-11-29T04:54:16.151Z,100.00
2022-11-29T04:56:51.451Z,100.00
2022-11-29T04:59:30.584Z,100.00
2022-11-29T05:02:30.337Z,100.00
2022-11-29T05:05:25.075Z,100.00
2022-11-29T05:08:17.502Z,100.00
2022-11-29T05:11:23.460Z,100.00
2022-11-29T05:14:25.263Z,100.00
2022-11-29T05:17:24.391Z,100.00
2022-11-29T05:20:05.865Z,100.00
2022-11-29T05:22:57.143Z,100.00
2022-11-29T05:25:40.225Z,100.00
2022-11-29T05:28:21.092Z,100.00
2022-11-29T05:31:03.597Z,100.00
2022-11-29T05:33:39.223Z,100.00
2022-11-29T05:36:12.269Z,100.00
2022-11-29T05:38:59.850Z,100.00
2022-11-29T05:41:35.864Z,100.00
2022-11-29T05:44:14.366Z,100.00
2022-11-29T05:46:44.313Z,100.00
2022-11-29T05:49:29.954Z,100.00
2022-11-29T05:52:32.324Z,100.00
2022-11-29T05:55:14.248Z,100.00
2022-11-29T05:57:59.002Z,100.00
2022-11-29T06:00:32.041Z,100.00
2022-11-29T06:03:36.696Z,100.00
2022-11-29T06:06:15.180Z,100.00
2022-11-29T06:09:06.360Z,100.00
2022-11-29T06:11:42.276Z,100.00
2022-11-29T06:14:22.754Z,100.00
2022-11-29T06:17:25.615Z,100.00
2022-11-29T06:20:18.619Z,100.00
2022-11-29T06:22:57.583Z,100.00
2022-11-29T06:25:30.862Z,100.00
2022-11-29T06:28:12.378Z,100.00
2022-11-29T06:31:05.575Z,100.00
2022-11-29T06:33:45.255Z,100.00
2022-11-29T06:36:23.163Z,100.00
2022-11-29T06:38:50.222Z,100.00
2022-11-29T06:41:20.991Z,100.00
2022-11-29T06:43:48.387Z,100.00
2022-11-29T06:46:47.077Z,100.00
2022-11-29T06:49:23.223Z,100.00
2022-11-29T06:52:21.681Z,100.00
2022-11-29T06:54:51.442Z,100.00
2022-11-29T06:57:40.331Z,100.00
2022-11-29T07:00:22.339Z,100.00
2022-11-29T07:02:57.772Z,100.00
2022-11-29T07:05:24.642Z,100.00
2022-11-29T07:07:56.999Z,100.00
2022-11-29T07:10:24.748Z,100.00
2022-11-29T07:12:52.038Z,100.00
2022-11-29T07:15:21.776Z,100.00
2022-11-29T07:18:13.259Z,100.00
2022-11-29T07:21:06.459Z,100.00
2022-11-29T07:24:02.226Z,100.00
2022-11-29T07:26:44.145Z,100.00
2022-11-29T07:29:32.696Z,100.00
2022-11-29T07:32:17.062Z,100.00
2022-11-29T07:35:11.001Z,100.00
2022-11-29T07:38:12.262Z,100.00
2022-11-29T07:40:50.760Z,100.00
2022-11-29T07:43:41.677Z,100.00
2022-11-29T07:46:10.640Z,100.00
2022-11-29T07:48:37.446Z,100.00
2022-11-29T07:51:04.836Z,100.00
2022-11-29T07:53:41.662Z,100.00
2022-11-29T07:56:16.435Z,100.00
2022-11-29T07:58:43.988Z,100.00
2022-11-29T08:01:10.893Z,100.00
2022-11-29T08:03:38.087Z,100.00
2022-11-29T08:06:05.186Z,100.00
2022-11-29T08:08:32.281Z,100.00
2022-11-29T08:10:59.090Z,100.00
2022-11-29T08:13:26.435Z,100.00
2022-11-29T08:15:53.218Z,100.00
2022-11-29T08:18:20.414Z,100.00
2022-11-29T08:20:47.329Z,100.00
2022-11-29T08:23:15.762Z,100.00
2022-11-29T08:25:42.694Z,100.00
2022-11-29T08:28:10.042Z,100.00
2022-11-29T08:30:37.282Z,100.00
2022-11-29T08:33:05.178Z,100.00
2022-11-29T08:35:32.724Z,100.00
2022-11-29T08:37:59.864Z,100.00
2022-11-29T08:40:26.942Z,100.00
2022-11-29T08:42:58.747Z,100.00
2022-11-29T08:45:25.889Z,100.00
2022-11-29T08:47:52.681Z,100.00
2022-11-29T08:50:20.134Z,100.00
2022-11-29T08:53:07.313Z,100.00
2022-11-29T08:55:41.047Z,100.00
2022-11-29T08:58:11.010Z,100.00
2022-11-29T09:00:38.749Z,100.00
2022-11-29T09:03:26.119Z,100.00
2022-11-29T09:05:53.431Z,100.00
2022-11-29T09:08:20.480Z,100.00
2022-11-29T09:10:47.690Z,100.00
2022-11-29T09:13:14.617Z,100.00
2022-11-29T09:15:43.555Z,100.00
2022-11-29T09:18:10.624Z,100.00
2022-11-29T09:20:37.563Z,100.00
2022-11-29T09:23:04.713Z,100.00
2022-11-29T09:25:32.376Z,100.00
2022-11-29T09:28:01.957Z,100.00
2022-11-29T09:30:34.911Z,100.00
2022-11-29T09:33:05.350Z,100.00
2022-11-29T09:35:33.248Z,100.00
2022-11-29T09:38:01.204Z,100.00
2022-11-29T09:40:36.492Z,100.00
2022-11-29T09:43:30.116Z,100.00
2022-11-29T09:46:18.349Z,100.00
2022-11-29T09:48:57.865Z,100.00
2022-11-29T09:51:30.170Z,100.00
2022-11-29T09:54:25.018Z,100.00
2022-11-29T09:56:55.607Z,100.00
2022-11-29T09:59:29.125Z,100.00
2022-11-29T10:02:06.587Z,100.00
2022-11-29T10:04:40.670Z,100.00
2022-11-29T10:07:28.449Z,100.00
2022-11-29T10:10:18.765Z,100.00
2022-11-29T10:12:52.583Z,100.00
2022-11-29T10:15:29.053Z,100.00
2022-11-29T10:18:04.661Z,100.00
2022-11-29T10:20:42.437Z,98.79
2022-11-29T10:23:16.760Z,98.22
2022-11-29T10:25:50.246Z,99.89
2022-11-29T10:28:20.973Z,98.08
2022-11-29T10:30:49.499Z,97.58
2022-11-29T10:33:25.781Z,98.40
2022-11-29T10:35:58.023Z,95.13
2022-11-29T10:38:32.649Z,93.85
2022-11-29T10:41:11.771Z,91.07
2022-11-29T10:43:38.989Z,93.61
2022-11-29T10:46:15.772Z,93.96
2022-11-29T10:48:43.049Z,92.74
2022-11-29T10:51:17.319Z,91.06
2022-11-29T10:53:45.889Z,89.23
2022-11-29T10:56:12.610Z,91.11
2022-11-29T10:59:05.402Z,89.41
2022-11-29T11:01:37.478Z,89.53
2022-11-29T11:04:10.260Z,87.33
2022-11-29T11:06:56.439Z,83.55
2022-11-29T11:09:40.976Z,84.96
2022-11-29T11:12:32.820Z,81.06
2022-11-29T11:15:21.170Z,81.16
2022-11-29T11:17:58.971Z,82.66
2022-11-29T11:20:31.379Z,80.66
2022-11-29T11:23:01.775Z,82.58
2022-11-29T11:25:38.455Z,81.60
2022-11-29T11:28:34.884Z,81.90
2022-11-29T11:31:06.482Z,82.47
2022-11-29T11:33:36.583Z,80.53
2022-11-29T11:36:12.038Z,81.38
2022-11-29T11:38:49.336Z,80.68
2022-11-29T11:41:20.713Z,88.00
2022-11-29T11:43:59.935Z,85.59
2022-11-29T11:46:50.522Z,81.68
2022-11-29T11:49:32.392Z,79.59
2022-11-29T11:52:01.290Z,77.28
2022-11-29T11:54:29.619Z,73.31
2022-11-29T11:56:56.828Z,75.14
2022-11-29T11:59:26.764Z,75.48
2022-11-29T12:01:53.935Z,74.48
2022-11-29T12:04:27.700Z,70.85
2022-11-29T12:07:13.660Z,70.00
2022-11-29T12:10:05.519Z,72.37
2022-11-29T12:12:43.389Z,69.60
2022-11-29T12:15:24.485Z,71.03
2022-11-29T12:18:14.562Z,71.57
2022-11-29T12:20:50.348Z,73.26
2022-11-29T12:23:39.825Z,72.68
2022-11-29T12:26:34.513Z,71.39
2022-11-29T12:29:01.869Z,71.21
2022-11-29T12:31:43.696Z,68.19
2022-11-29T12:34:22.457Z,69.15
2022-11-29T12:36:55.853Z,66.85
2022-11-29T12:39:45.215Z,67.62
2022-11-29T12:42:17.660Z,66.69
2022-11-29T12:44:50.476Z,66.71
2022-11-29T12:47:51.907Z,67.39
2022-11-29T12:51:01.776Z,68.60
2022-11-29T12:53:40.847Z,68.74
2022-11-29T12:56:14.034Z,69.07
2022-11-29T12:59:07.615Z,70.74
2022-11-29T13:01:44.779Z,71.86
2022-11-29T13:04:22.403Z,72.65
2022-11-29T13:07:07.691Z,72.68
2022-11-29T13:09:40.049Z,72.63
2022-11-29T13:12:33.126Z,73.92
2022-11-29T13:15:07.075Z,75.51
2022-11-29T13:17:50.139Z,74.51
2022-11-29T13:20:40.304Z,74.96
2022-11-29T13:23:46.190Z,74.49
2022-11-29T13:26:25.629Z,72.79
2022-11-29T13:28:53.049Z,72.19
2022-11-29T13:31:22.014Z,70.38
2022-11-29T13:34:14.910Z,69.56
2022-11-29T13:37:02.006Z,69.15
2022-11-29T13:40:01.460Z,69.33
2022-11-29T13:42:52.324Z,70.56
2022-11-29T13:45:47.459Z,71.16
2022-11-29T13:48:35.164Z,71.88
2022-11-29T13:51:39.030Z,70.68
2022-11-29T13:54:25.176Z,72.22
2022-11-29T13:57:09.369Z,73.62
2022-11-29T13:59:44.261Z,73.45
2022-11-29T14:02:30.500Z,74.44
2022-11-29T14:04:57.747Z,74.69
2022-11-29T14:07:24.640Z,76.16
2022-11-29T14:10:02.596Z,76.65
2022-11-29T14:12:42.118Z,76.31
2022-11-29T14:15:26.727Z,76.99
2022-11-29T14:18:08.256Z,76.92
2022-11-29T14:20:44.073Z,76.52
2022-11-29T14:23:16.757Z,75.98
2022-11-29T14:25:58.841Z,76.07
2022-11-29T14:28:32.825Z,75.98
2022-11-29T14:31:03.962Z,75.72
2022-11-29T14:33:58.179Z,74.66
2022-11-29T14:36:50.266Z,75.48
2022-11-29T14:39:47.053Z,75.39
2022-11-29T14:42:18.837Z,75.28
2022-11-29T14:45:21.099Z,75.55
2022-11-29T14:47:49.314Z,75.69
2022-11-29T14:50:33.139Z,75.56
2022-11-29T14:53:01.306Z,76.00
2022-11-29T14:55:37.293Z,76.09
2022-11-29T14:58:20.733Z,76.12
2022-11-29T15:00:47.935Z,76.57
2022-11-29T15:03:17.708Z,75.33
2022-11-29T15:05:50.204Z,76.98
2022-11-29T15:09:02.095Z,76.65
2022-11-29T15:11:54.592Z,76.92
2022-11-29T15:14:37.015Z,76.91
2022-11-29T15:17:22.987Z,77.27
2022-11-29T15:19:55.583Z,76.93
2022-11-29T15:22:29.683Z,77.01
2022-11-29T15:25:21.350Z,79.91
2022-11-29T15:27:59.123Z,78.55
2022-11-29T15:30:29.615Z,78.10
2022-11-29T15:33:01.553Z,78.10
2022-11-29T15:35:29.151Z,77.89
2022-11-29T15:37:56.764Z,77.82
2022-11-29T15:40:32.140Z,78.24
2022-11-29T15:43:22.420Z,78.44
2022-11-29T15:45:55.889Z,79.05
2022-11-29T15:48:28.950Z,78.60
2022-11-29T15:51:18.658Z,78.64
2022-11-29T15:54:00.411Z,78.69
2022-11-29T15:56:50.169Z,79.61
2022-11-29T15:59:31.626Z,80.27
2022-11-29T16:02:02.859Z,80.60
2022-11-29T16:04:30.390Z,80.46
2022-11-29T16:06:58.369Z,80.61
2022-11-29T16:09:48.208Z,80.37
2022-11-29T16:12:18.055Z,81.34
2022-11-29T16:14:56.628Z,81.00
2022-11-29T16:17:30.303Z,81.70
2022-11-29T16:20:16.670Z,81.89
2022-11-29T16:22:43.780Z,82.12
2022-11-29T16:25:19.590Z,83.17
2022-11-29T16:27:48.022Z,84.23
2022-11-29T16:30:23.112Z,83.70
2022-11-29T16:32:55.712Z,84.03
2022-11-29T16:35:26.487Z,84.49
2022-11-29T16:37:54.789Z,84.20
2022-11-29T16:40:31.853Z,84.54
2022-11-29T16:43:23.622Z,85.16
2022-11-29T16:46:26.830Z,85.86
2022-11-29T16:48:56.658Z,86.65
2022-11-29T16:51:32.523Z,86.38
2022-11-29T16:54:20.672Z,87.55
2022-11-29T16:56:48.417Z,88.18
2022-11-29T16:59:25.421Z,88.86
2022-11-29T17:01:55.213Z,89.56
2022-11-29T17:04:24.015Z,91.00
2022-11-29T17:06:56.383Z,91.05
2022-11-29T17:09:28.762Z,91.22
2022-11-29T17:11:56.633Z,92.18
2022-11-29T17:14:23.559Z,93.99
2022-11-29T17:16:52.318Z,94.67
2022-11-29T17:19:24.136Z,94.42
2022-11-29T17:21:53.039Z,95.76
2022-11-29T17:24:21.697Z,95.60
2022-11-29T17:26:48.963Z,96.33
2022-11-29T17:29:17.599Z,97.14
2022-11-29T17:31:45.665Z,96.99
2022-11-29T17:34:12.703Z,96.63
2022-11-29T17:36:40.887Z,96.84
2022-11-29T17:39:08.043Z,97.15
2022-11-29T17:41:35.274Z,97.16
2022-11-29T17:44:02.897Z,97.16
2022-11-29T17:46:32.510Z,100.00
2022-11-29T17:49:01.217Z,100.00
2022-11-29T17:51:51.126Z,100.00
2022-11-29T17:54:16.826Z,100.00
2022-11-29T17:56:43.733Z,100.00
2022-11-29T17:59:10.871Z,100.00
2022-11-29T18:01:37.769Z,100.00
2022-11-29T18:04:06.737Z,100.00
2022-11-29T18:06:38.990Z,100.00
2022-11-29T18:09:08.724Z,100.00
2022-11-29T18:11:45.250Z,100.00
2022-11-29T18:14:20.161Z,100.00
2022-11-29T18:16:47.503Z,100.00
2022-11-29T18:19:17.931Z,100.00
2022-11-29T18:21:45.784Z,100.00
2022-11-29T18:24:12.630Z,100.00
2022-11-29T18:26:40.383Z,100.00
2022-11-29T18:29:08.455Z,100.00
2022-11-29T18:31:38.011Z,100.00
2022-11-29T18:34:07.284Z,100.00
2022-11-29T18:36:37.537Z,100.00
2022-11-29T18:39:08.688Z,100.00
2022-11-29T18:41:36.326Z,100.00
2022-11-29T18:44:11.564Z,100.00
2022-11-29T18:46:41.255Z,100.00
2022-11-29T18:49:10.224Z,100.00
2022-11-29T18:51:38.294Z,100.00
2022-11-29T18:54:06.650Z,100.00
2022-11-29T18:56:35.149Z,100.00
2022-11-29T18:59:05.210Z,100.00
2022-11-29T19:01:41.035Z,100.00
2022-11-29T19:04:11.521Z,100.00
2022-11-29T19:06:39.878Z,100.00
2022-11-29T19:09:11.846Z,100.00
2022-11-29T19:11:39.348Z,100.00
2022-11-29T19:14:11.773Z,100.00
2022-11-29T19:16:42.402Z,100.00
2022-11-29T19:19:09.842Z,100.00
2022-11-29T19:21:36.881Z,100.00
2022-11-29T19:24:07.997Z,100.00
2022-11-29T19:26:35.393Z,100.00
2022-11-29T19:29:02.289Z,100.00
2022-11-29T19:31:30.105Z,100.00
2022-11-29T19:33:58.049Z,100.00
2022-11-29T19:36:30.662Z,100.00
2022-11-29T19:39:00.683Z,100.00
2022-11-29T19:41:33.629Z,100.00
2022-11-29T19:44:04.125Z,100.00
2022-11-29T19:46:43.445Z,100.00
2022-11-29T19:49:11.666Z,100.00
2022-11-29T19:51:38.699Z,100.00
2022-11-29T19:54:08.421Z,100.00
2022-11-29T19:56:35.323Z,100.00
2022-11-29T19:59:02.823Z,100.00
2022-11-29T20:01:39.219Z,100.00
2022-11-29T20:04:07.602Z,100.00
2022-11-29T20:06:34.802Z,100.00
2022-11-29T20:09:02.308Z,100.00
2022-11-29T20:11:29.207Z,100.00
2022-11-29T20:14:02.664Z,100.00
2022-11-29T20:16:31.178Z,100.00
2022-11-29T20:18:58.718Z,100.00
2022-11-29T20:21:34.123Z,100.00
2022-11-29T20:24:06.372Z,100.00
2022-11-29T20:26:39.623Z,100.00
2022-11-29T20:29:08.454Z,100.00
2022-11-29T20:31:37.136Z,100.00
2022-11-29T20:34:07.563Z,100.00
2022-11-29T20:36:47.112Z,100.00
2022-11-29T20:39:33.181Z,100.00
2022-11-29T20:42:19.117Z,100.00
2022-11-29T20:44:55.235Z,100.00
2022-11-29T20:47:27.259Z,100.00
2022-11-29T20:49:55.226Z,100.00
2022-11-29T20:52:34.150Z,100.00
2022-11-29T20:55:01.521Z,100.00
2022-11-29T20:57:28.751Z,100.00
2022-11-29T20:59:56.400Z,100.00
2022-11-29T21:02:23.605Z,100.00
2022-11-29T21:04:51.064Z,100.00
2022-11-29T21:07:18.033Z,100.00
2022-11-29T21:09:45.808Z,100.00
2022-11-29T21:12:13.199Z,100.00
2022-11-29T21:14:40.719Z,100.00
2022-11-29T21:17:09.189Z,100.00
2022-11-29T21:19:36.942Z,100.00
2022-11-29T21:22:16.439Z,100.00
2022-11-29T21:25:05.336Z,100.00
2022-11-29T21:27:35.107Z,100.00
2022-11-29T21:30:05.955Z,100.00
2022-11-29T21:32:33.605Z,100.00
2022-11-29T21:35:00.766Z,100.00
2022-11-29T21:37:30.704Z,100.00
2022-11-29T21:39:57.691Z,100.00
2022-11-29T21:42:25.534Z,100.00
2022-11-29T21:44:52.314Z,100.00
2022-11-29T21:47:19.550Z,100.00
2022-11-29T21:49:47.103Z,100.00
2022-11-29T21:52:20.712Z,100.00
2022-11-29T21:54:49.940Z,100.00
2022-11-29T21:57:16.753Z,100.00
2022-11-29T21:59:43.795Z,100.00
2022-11-29T22:02:10.885Z,100.00
2022-11-29T22:04:38.121Z,100.00
2022-11-29T22:07:04.996Z,100.00
2022-11-29T22:09:32.416Z,100.00
2022-11-29T22:11:59.169Z,100.00
2022-11-29T22:14:26.390Z,100.00
2022-11-29T22:16:57.362Z,100.00
2022-11-29T22:19:29.756Z,100.00
2022-11-29T22:22:05.716Z,100.00
2022-11-29T22:24:35.332Z,100.00
2022-11-29T22:27:02.524Z,100.00
2022-11-29T22:29:30.341Z,100.00
2022-11-29T22:31:59.398Z,100.00
2022-11-29T22:34:28.044Z,100.00
2022-11-29T22:36:57.260Z,100.00
2022-11-29T22:39:24.595Z,100.00
2022-11-29T22:41:54.755Z,100.00
2022-11-29T22:44:26.156Z,100.00
2022-11-29T22:46:53.453Z,100.00
2022-11-29T22:49:27.180Z,100.00
2022-11-29T22:51:55.162Z,100.00
2022-11-29T22:54:22.230Z,100.00
2022-11-29T22:56:49.525Z,100.00
2022-11-29T22:59:16.419Z,100.00
2022-11-29T23:01:44.151Z,100.00
2022-11-29T23:04:13.010Z,100.00
2022-11-29T23:06:44.742Z,100.00
2022-11-29T23:09:20.143Z,100.00
2022-11-29T23:11:52.069Z,100.00
2022-11-29T23:14:20.013Z,100.00
2022-11-29T23:16:47.348Z,100.00
2022-11-29T23:19:16.337Z,100.00
2022-11-29T23:21:45.764Z,100.00
2022-11-29T23:24:15.278Z,100.00
2022-11-29T23:26:45.637Z,100.00
2022-11-29T23:29:15.164Z,100.00
2022-11-29T23:31:43.255Z,100.00
2022-11-29T23:34:10.633Z,100.00
2022-11-29T23:36:37.461Z,100.00
2022-11-29T23:39:08.517Z,100.00
2022-11-29T23:41:38.651Z,100.00
2022-11-29T23:44:06.175Z,100.00
2022-11-29T23:46:35.280Z,100.00
2022-11-29T23:49:02.157Z,100.00
2022-11-29T23:51:29.641Z,100.00
2022-11-29T23:53:56.516Z,100.00
2022-11-29T23:56:23.713Z,100.00
2022-11-29T23:58:50.642Z,100.00
